Station: Gove Airport  

  Atmospheric Gas Attenuation - ITU Rec 676-11   ----------------- dB/100km -----------------
Date Time Temp RH % AH g/m3 Dew Point Wind Direction Speed kph Gust kph Barometer mB Rainfall Since 9am 24GHz 47GHz 76GHz 122GHz 134GHz 241GHz
01/09 17:10 25.6 72 17.14 20.2 22 32 1015.6 0.4 36.9 36.4 68.2 180.3 195.5 678.9
01/09 17:00 26 70 17.04 20.1 20 28 1015.4 0.4 36.7 36.1 67.4 178.1 193.0 670.2
01/09 16:50 25.8 70 16.85 19.9 22 32 1015.5 0.4 36.3 35.8 66.7 176.4 190.8 662.4
01/09 16:40 26.4 69 17.18 20.3 20 32 1015.3 0.4 37.0 36.1 67.7 178.8 194.0 673.7
01/09 16:30 26 69 16.8 19.9 22 32 1015.3 0.4 36.2 35.6 66.3 175.3 189.5 658.1
01/09 16:20 26.7 67 16.96 20.1 22 33 1015.2 0.4 36.5 35.6 66.4 175.6 190.0 660.1
01/09 16:10 26.3 71 17.58 20.6 24 32 1015.1 0.4 37.8 36.9 69.5 183.8 200.0 694.8
01/09 16:00 26.4 70 17.43 20.5 20 32 1015.1 0.4 37.5 36.6 68.8 181.8 197.6 686.3
01/09 15:50 25.6 72 17.14 20.2 24 37 1015.1 0.4 36.9 36.4 68.2 180.2 195.4 678.7
01/09 15:40 26.8 65 16.54 19.7 30 43 1015 0.4 35.6 34.8 64.5 170.4 183.8 638.3
01/09 15:30 27.4 63 16.58 19.7 28 39 1015 0.4 35.6 34.7 64.2 169.6 182.9 635.3
01/09 15:20 27.2 63 16.39 19.5 28 35 1014.9 0.4 35.2 34.4 63.5 167.8 180.7 627.7
01/09 15:10 27 64 16.47 19.6 26 35 1015.1 0.4 35.4 34.6 64.0 169.2 182.3 633.3
01/09 15:00 27.9 63 17.04 20.2 24 35 1015.1 0.4 36.5 35.3 65.7 173.8 188.2 653.7
01/09 14:50 27.5 65 17.2 20.3 24 37 1015.4 0.4 36.9 35.7 66.8 176.6 191.5 665.2
01/09 14:40 26.8 65 16.54 19.7 22 35 1015.5 0.4 35.6 34.9 64.5 170.5 183.9 638.5
01/09 12:06 27.1 64 16.56 19.7 26 32 1017.6 0 35.6 34.9 64.5 170.4 183.7 638.0
01/09 12:00 27.4 63 16.58 19.7 24 33 1017.7 0 35.6 34.8 64.3 170.0 183.3 636.6
01/09 11:50 28.7 59 16.67 19.9 24 30 1017.6 0 35.7 34.4 63.6 168.1 181.4 630.3
01/09 11:40 27.2 64 16.66 19.8 20 30 1018 0 35.8 35.0 64.9 171.4 184.9 642.3
01/09 11:30 27.9 62 16.77 19.9 20 30 1018.2 0 35.9 34.9 64.8 171.1 184.8 641.9
01/09 11:20 27.4 61 16.05 19.2 22 28 1018.3 0 34.5 33.9 62.1 164.0 176.0 611.1
01/09 11:10 29.1 60 17.33 20.5 20 28 1018.4 0 37.0 35.4 66.1 174.8 189.7 659.3
01/09 11:00 28.4 58 16.12 19.3 17 24 1018.5 0 34.5 33.6 61.6 162.7 174.7 606.7
01/09 10:50 27.3 60 15.7 18.9 20 32 1018.7 0 33.7 33.4 60.7 160.4 171.4 595.2
01/09 10:40 27.7 57 15.25 18.4 19 22 1018.8 0 32.8 32.5 58.6 154.6 164.4 570.9
01/09 10:30 27.4 57 15 18.1 20 28 1018.9 0 32.3 32.2 57.7 152.4 161.7 561.3
01/09 10:20 27.1 60 15.53 18.7 20 24 1019 0 33.4 33.2 60.2 158.9 169.6 588.7
01/09 10:10 28 58 15.77 19 20 28 1019.2 0 33.8 33.2 60.5 159.8 170.9 593.4
01/09 10:00 27.7 62 16.59 19.8 19 28 1019.2 0 35.6 34.7 64.2 169.6 182.9 635.3
01/09 09:50 27.2 64 16.66 19.8 17 24 1019.3 0 35.8 35.1 64.9 171.5 185.1 642.9
01/09 09:40 27.2 63 16.39 19.5 22 28 1019.2 0 35.2 34.6 63.8 168.4 181.3 629.6
01/09 09:30 27 66 16.99 20.1 20 30 1019 0 36.5 35.7 66.5 175.8 190.2 660.8
01/09 09:20 26.5 64 16.02 19.1 19 28 1019 0 34.5 34.2 62.7 165.7 177.7 617.0
01/09 09:10 26.6 66 16.61 19.7 22 28 1018.9 0 35.7 35.2 65.2 172.2 185.8 645.2
01/09 09:00 26.7 66 16.71 19.8 20 28 1019 0 35.9 35.3 65.5 173.2 187.0 649.4
01/09 08:50 26.3 68 16.83 19.9 19 26 1018.9 0.2 36.2 35.7 66.4 175.5 189.7 658.7
01/09 08:40 26.4 69 17.18 20.3 17 26 1018.8 0.2 36.9 36.3 67.9 179.3 194.5 675.4
01/09 08:30 25.8 70 16.85 19.9 15 19 1018.8 0.2 36.3 36.0 66.9 176.8 191.2 664.0
01/09 08:20 25 75 17.26 20.3 13 17 1018.7 0.2 37.2 37.0 69.5 183.6 199.3 691.9
01/09 08:10 24.3 77 17.04 20 11 15 1018.8 0.2 36.8 36.9 69.1 182.6 197.8 686.9
01/09 08:00 23.7 79 16.9 19.8 9 13 1018.8 0.2 36.6 36.9 69.0 182.4 197.3 685.0
01/09 07:50 23.2 80 16.63 19.6 7 9 1018.6 0.2 36.1 36.7 68.2 180.2 194.6 675.4
01/09 07:40 22.6 83 16.67 19.6 7 9 1018.5 0.2 36.2 37.0 68.9 182.1 196.7 682.8
01/09 07:30 22.1 84 16.4 19.3 7 9 1018.6 0.2 35.7 36.7 68.1 180.0 194.0 673.1
01/09 07:20 21.6 86 16.31 19.2 9 11 1018.3 0.2 35.5 36.8 68.2 180.0 193.9 672.6
01/09 07:10 21 87 15.94 18.8 9 13 1018.2 0.2 34.8 36.3 67.0 176.9 189.8 658.3
01/09 07:00 20.1 89 15.47 18.2 11 13 1018.1 0.2 33.9 35.8 65.6 173.1 184.9 641.2
01/09 06:50 19.4 94 15.68 18.4 9 13 1017.9 0.2 34.4 36.5 67.1 177.3 189.8 658.3
01/09 06:40 18.7 94 15.05 17.7 7 11 1017.8 0.2 33.1 35.6 64.8 171.1 181.9 630.6
01/09 06:30 18.8 95 15.3 18 7 7 1017.8 0.2 33.6 36.0 65.9 174.0 185.5 643.1
01/09 06:20 18.6 95 15.12 17.8 6 7 1017.6 0.2 33.2 35.8 65.2 172.1 183.2 635.1
01/09 06:10 18.3 95 14.85 17.5 6 7 1017.5 0.2 32.7 35.4 64.2 169.5 179.8 623.2
01/09 06:00 18.5 94 14.87 17.5 0 0 1017.4 0.2 32.7 35.4 64.1 169.2 179.6 622.6
01/09 05:50 18.5 94 14.87 17.5 0 0 1017.2 0.2 32.7 35.3 64.1 169.2 179.6 622.5
01/09 05:40 18.6 94 14.96 17.6 0 0 1017 0.2 32.9 35.5 64.4 170.1 180.7 626.3
01/09 05:30 18.7 93 14.89 17.5 0 0 1016.9 0.2 32.7 35.3 64.0 169.0 179.4 621.8
01/09 05:20 18.8 93 14.98 17.6 0 0 1016.6 0.2 32.9 35.4 64.3 169.8 180.4 625.6
01/09 05:10 18.8 93 14.98 17.6 0 0 1016.5 0.2 32.9 35.4 64.3 169.8 180.4 625.5
01/09 05:00 19.1 92 15.08 17.8 0 0 1016.5 0.2 33.1 35.5 64.5 170.4 181.2 628.3
01/09 04:50 19.2 92 15.17 17.9 0 0 1016.3 0.2 33.3 35.6 64.8 171.2 182.3 632.1
01/09 04:40 19.4 92 15.35 18.1 6 7 1016.3 0.2 33.7 35.8 65.5 173.0 184.6 640.0
01/09 04:30 19.4 91 15.18 17.9 6 7 1016.4 0.2 33.3 35.5 64.7 170.9 182.0 631.1
01/09 04:20 19.5 91 15.27 18 7 9 1016.3 0.2 33.5 35.6 65.1 171.8 183.1 634.9
01/09 04:10 19.5 90 15.1 17.8 9 11 1016.4 0.2 33.1 35.3 64.3 169.7 180.5 626.0
01/09 04:00 19.4 92 15.35 18.1 9 9 1016.5 0.2 33.7 35.8 65.5 173.0 184.6 640.1
01/09 03:50 19.2 93 15.33 18 7 11 1016.3 0.2 33.7 35.9 65.6 173.2 184.8 640.6
01/09 03:40 18.8 94 15.14 17.8 6 7 1016.3 0.2 33.3 35.7 65.0 171.8 182.8 633.9
01/09 03:30 18.9 93 15.07 17.7 6 7 1016.3 0.2 33.1 35.5 64.6 170.7 181.5 629.3
01/09 03:20 19.4 93 15.52 18.2 0 0 1016.1 0.2 34.0 36.1 66.3 175.1 187.1 648.9
01/09 03:10 19.5 93 15.61 18.3 0 0 1016.1 0.2 34.2 36.3 66.6 176.0 188.3 652.9
01/09 03:00 19.6 93 15.7 18.4 0 0 1016.2 0.2 34.4 36.4 67.0 176.9 189.4 656.8
01/09 02:50 19.6 93 15.7 18.4 0 0 1016.1 0.2 34.4 36.4 67.0 176.9 189.4 656.8
01/09 02:40 19.6 93 15.7 18.4 0 0 1016.1 0.2 34.4 36.4 67.0 176.9 189.4 656.8
01/09 02:30 19.6 93 15.7 18.4 0 0 1016.3 0.2 34.4 36.4 67.0 176.9 189.4 656.9
01/09 02:20 19.3 93 15.42 18.1 0 0 1016.3 0.2 33.8 36.0 65.9 174.1 185.9 644.6
01/09 02:10 19.3 94 15.59 18.3 2 7 1016.5 0.2 34.2 36.3 66.7 176.2 188.5 653.7
01/09 02:00 19.2 93 15.33 18 0 0 1016.8 0.2 33.6 35.9 65.6 173.3 184.8 640.8
01/09 01:50 19.2 93 15.33 18 0 0 1016.8 0.2 33.6 35.9 65.6 173.3 184.8 640.8
01/09 01:40 19 92 14.99 17.7 0 0 1016.9 0.2 32.9 35.3 64.2 169.5 180.2 624.6
01/09 01:30 19.4 92 15.35 18.1 0 0 1017.1 0.2 33.7 35.9 65.6 173.1 184.7 640.4
01/09 01:20 19.5 91 15.27 18 0 0 1017.1 0.2 33.5 35.7 65.1 171.9 183.2 635.3
01/09 01:10 19.6 90 15.19 17.9 0 0 1017.2 0.2 33.3 35.5 64.6 170.7 181.8 630.3
01/09 01:00 20 89 15.38 18.1 0 4 1017.4 0.2 33.7 35.7 65.2 172.2 183.7 637.0
01/09 00:50 20.2 89 15.56 18.3 6 6 1017.5 0.2 34.1 35.9 65.9 173.9 185.9 644.9
01/09 00:40 20.3 88 15.48 18.2 6 7 1017.5 0.2 33.9 35.7 65.4 172.7 184.5 639.8
01/09 00:30 20.4 87 15.39 18.2 6 7 1017.7 0.2 33.7 35.5 64.9 171.4 182.9 634.3
01/09 00:20 20.9 85 15.48 18.3 6 7 1017.7 0.2 33.8 35.5 64.9 171.4 183.0 634.9
01/09 00:10 21.3 85 15.84 18.7 7 9 1017.8 0.2 34.6 36.0 66.2 174.9 187.5 650.3
01/09 00:00 21.2 85 15.75 18.6 7 9 1017.9 0.2 34.4 35.9 65.9 174.0 186.4 646.5
31/08 23:50 21.2 85 15.75 18.6 7 9 1018 0.2 34.4 35.9 65.9 174.1 186.4 646.6
31/08 23:40 21.4 84 15.75 18.6 9 9 1018.1 0.2 34.4 35.8 65.7 173.6 185.9 644.9
31/08 23:30 21.7 83 15.83 18.7 9 11 1018.1 0.2 34.5 35.8 65.8 173.9 186.4 646.5
31/08 23:20 21.8 82 15.73 18.6 9 11 1018.1 0.2 34.3 35.6 65.3 172.5 184.6 640.5
31/08 23:10 21.9 82 15.82 18.7 7 11 1018.2 0.2 34.5 35.7 65.6 173.3 185.7 644.4
31/08 23:00 21.8 83 15.92 18.8 9 11 1018.2 0.2 34.7 35.9 66.2 174.8 187.5 650.4
31/08 22:50 21.9 82 15.82 18.7 9 9 1018.2 0.2 34.5 35.7 65.6 173.3 185.7 644.4
31/08 22:40 22 82 15.91 18.8 9 11 1018.2 0.2 34.6 35.8 66.0 174.2 186.8 648.2
31/08 22:30 22 82 15.91 18.8 9 11 1018.2 0.2 34.6 35.8 66.0 174.2 186.8 648.2
31/08 22:20 22 82 15.91 18.8 9 48 1018.2 0.2 34.6 35.8 66.0 174.2 186.8 648.2

Last Refresh: 01-Sep-2026 17:19:40

Bureau of Meteorology